sensor_id;sensor_type;location;lat;lon;timestamp;pressure;altitude;pressure_sealevel;temperature;humidity
75359;BME280;64046;51.978;5.934;2023-04-10T00:01:03;102038.31;;;14.70;48.52
75359;BME280;64046;51.978;5.934;2023-04-10T00:03:32;102038.38;;;14.69;48.63
75359;BME280;64046;51.978;5.934;2023-04-10T00:06:01;102042.13;;;14.63;48.79
75359;BME280;64046;51.978;5.934;2023-04-10T00:08:35;102040.81;;;14.74;48.86
75359;BME280;64046;51.978;5.934;2023-04-10T00:11:04;102047.34;;;14.65;48.99
75359;BME280;64046;51.978;5.934;2023-04-10T00:13:33;102049.19;;;14.61;48.94
75359;BME280;64046;51.978;5.934;2023-04-10T00:16:03;102047.13;;;14.69;48.76
75359;BME280;64046;51.978;5.934;2023-04-10T00:18:32;102045.38;;;14.70;48.93
75359;BME280;64046;51.978;5.934;2023-04-10T00:21:02;102041.56;;;14.77;49.08
75359;BME280;64046;51.978;5.934;2023-04-10T00:23:31;102029.47;;;14.72;49.13
75359;BME280;64046;51.978;5.934;2023-04-10T00:26:03;102020.03;;;14.86;49.26
75359;BME280;64046;51.978;5.934;2023-04-10T00:28:32;102013.88;;;14.65;49.53
75359;BME280;64046;51.978;5.934;2023-04-10T00:31:03;102005.97;;;14.65;49.70
75359;BME280;64046;51.978;5.934;2023-04-10T00:33:32;102003.50;;;14.61;49.84
75359;BME280;64046;51.978;5.934;2023-04-10T00:36:01;102003.50;;;14.61;50.13
75359;BME280;64046;51.978;5.934;2023-04-10T00:38:31;102014.31;;;14.54;50.17
75359;BME280;64046;51.978;5.934;2023-04-10T00:41:04;102005.19;;;14.63;50.30
75359;BME280;64046;51.978;5.934;2023-04-10T00:43:34;101993.78;;;14.41;50.55
75359;BME280;64046;51.978;5.934;2023-04-10T00:46:04;101999.66;;;14.47;50.64
75359;BME280;64046;51.978;5.934;2023-04-10T00:48:33;101978.75;;;14.43;50.63
75359;BME280;64046;51.978;5.934;2023-04-10T00:51:03;101981.13;;;14.49;50.48
75359;BME280;64046;51.978;5.934;2023-04-10T00:53:34;101980.72;;;14.38;50.47
75359;BME280;64046;51.978;5.934;2023-04-10T00:56:06;101974.94;;;14.50;50.67
75359;BME280;64046;51.978;5.934;2023-04-10T00:58:35;101969.44;;;14.34;50.94
75359;BME280;64046;51.978;5.934;2023-04-10T01:03:46;101960.53;;;14.36;51.04
75359;BME280;64046;51.978;5.934;2023-04-10T01:06:20;101949.56;;;14.47;50.84
75359;BME280;64046;51.978;5.934;2023-04-10T01:08:55;101957.66;;;14.43;50.89
75359;BME280;64046;51.978;5.934;2023-04-10T01:11:41;101946.19;;;14.44;50.77
75359;BME280;64046;51.978;5.934;2023-04-10T01:14:24;101953.75;;;14.31;51.12
75359;BME280;64046;51.978;5.934;2023-04-10T01:16:59;101962.72;;;14.27;51.24
75359;BME280;64046;51.978;5.934;2023-04-10T01:19:56;101962.22;;;14.39;51.01
75359;BME280;64046;51.978;5.934;2023-04-10T01:22:33;101953.53;;;14.37;51.41
75359;BME280;64046;51.978;5.934;2023-04-10T01:25:18;101943.75;;;14.39;51.52
75359;BME280;64046;51.978;5.934;2023-04-10T01:28:04;101955.47;;;14.32;51.73
75359;BME280;64046;51.978;5.934;2023-04-10T01:30:38;101952.09;;;14.28;52.10
75359;BME280;64046;51.978;5.934;2023-04-10T01:33:11;101956.59;;;14.26;52.30
75359;BME280;64046;51.978;5.934;2023-04-10T01:35:43;101951.56;;;14.20;52.53
75359;BME280;64046;51.978;5.934;2023-04-10T01:38:17;101955.06;;;14.21;52.30
75359;BME280;64046;51.978;5.934;2023-04-10T01:40:50;101958.31;;;14.27;52.25
75359;BME280;64046;51.978;5.934;2023-04-10T01:43:29;101960.25;;;14.22;52.41
75359;BME280;64046;51.978;5.934;2023-04-10T01:46:03;101952.16;;;14.27;52.56
75359;BME280;64046;51.978;5.934;2023-04-10T01:48:32;101947.72;;;14.07;52.62
75359;BME280;64046;51.978;5.934;2023-04-10T01:51:04;101948.88;;;14.22;52.49
75359;BME280;64046;51.978;5.934;2023-04-10T01:53:36;101939.56;;;14.13;52.66
75359;BME280;64046;51.978;5.934;2023-04-10T01:56:07;101944.72;;;14.16;52.93
75359;BME280;64046;51.978;5.934;2023-04-10T01:58:43;101933.88;;;14.01;53.12
75359;BME280;64046;51.978;5.934;2023-04-10T02:01:20;101940.03;;;14.23;52.98
75359;BME280;64046;51.978;5.934;2023-04-10T02:03:49;101929.41;;;14.04;53.25
75359;BME280;64046;51.978;5.934;2023-04-10T02:06:25;101936.88;;;14.14;53.13
75359;BME280;64046;51.978;5.934;2023-04-10T02:09:01;101937.22;;;14.05;53.50
75359;BME280;64046;51.978;5.934;2023-04-10T02:11:39;101930.22;;;14.06;53.61
75359;BME280;64046;51.978;5.934;2023-04-10T02:14:10;101935.97;;;13.93;53.87
75359;BME280;64046;51.978;5.934;2023-04-10T02:16:43;101933.81;;;14.03;53.93
75359;BME280;64046;51.978;5.934;2023-04-10T02:19:15;101931.13;;;14.05;53.78
75359;BME280;64046;51.978;5.934;2023-04-10T02:21:46;101928.84;;;13.95;53.74
75359;BME280;64046;51.978;5.934;2023-04-10T02:24:16;101929.94;;;13.90;54.18
75359;BME280;64046;51.978;5.934;2023-04-10T02:26:46;101916.69;;;13.93;54.06
75359;BME280;64046;51.978;5.934;2023-04-10T02:29:16;101916.91;;;13.87;54.37
75359;BME280;64046;51.978;5.934;2023-04-10T02:31:48;101911.22;;;13.97;54.55
75359;BME280;64046;51.978;5.934;2023-04-10T02:34:19;101912.09;;;13.76;54.73
75359;BME280;64046;51.978;5.934;2023-04-10T02:36:48;101915.69;;;13.73;54.80
75359;BME280;64046;51.978;5.934;2023-04-10T02:39:18;101911.34;;;13.72;54.54
75359;BME280;64046;51.978;5.934;2023-04-10T02:41:50;101904.59;;;13.65;54.54
75359;BME280;64046;51.978;5.934;2023-04-10T02:44:20;101911.59;;;13.66;54.45
75359;BME280;64046;51.978;5.934;2023-04-10T02:46:51;101908.41;;;13.80;54.25
75359;BME280;64046;51.978;5.934;2023-04-10T02:49:21;101908.09;;;13.65;54.47
75359;BME280;64046;51.978;5.934;2023-04-10T02:51:50;101907.28;;;13.63;54.40
75359;BME280;64046;51.978;5.934;2023-04-10T02:54:20;101905.56;;;13.62;54.37
75359;BME280;64046;51.978;5.934;2023-04-10T02:56:49;101903.00;;;13.61;54.43
75359;BME280;64046;51.978;5.934;2023-04-10T02:59:19;101901.06;;;13.66;54.60
75359;BME280;64046;51.978;5.934;2023-04-10T03:01:51;101905.03;;;13.76;54.35
75359;BME280;64046;51.978;5.934;2023-04-10T03:04:20;101898.59;;;13.61;54.40
75359;BME280;64046;51.978;5.934;2023-04-10T03:06:49;101895.03;;;13.62;54.50
75359;BME280;64046;51.978;5.934;2023-04-10T03:09:19;101898.53;;;13.63;54.57
75359;BME280;64046;51.978;5.934;2023-04-10T03:11:49;101893.22;;;13.64;54.59
75359;BME280;64046;51.978;5.934;2023-04-10T03:14:18;101898.59;;;13.61;54.54
75359;BME280;64046;51.978;5.934;2023-04-10T03:16:47;101898.66;;;13.60;54.78
75359;BME280;64046;51.978;5.934;2023-04-10T03:19:19;101902.66;;;13.70;54.90
75359;BME280;64046;51.978;5.934;2023-04-10T03:21:48;101895.28;;;13.56;54.97
75359;BME280;64046;51.978;5.934;2023-04-10T03:24:18;101902.28;;;13.57;55.04
75359;BME280;64046;51.978;5.934;2023-04-10T03:26:48;101902.88;;;13.42;55.47
75359;BME280;64046;51.978;5.934;2023-04-10T03:29:17;101906.47;;;13.39;55.85
75359;BME280;64046;51.978;5.934;2023-04-10T03:31:47;101909.97;;;13.40;56.01
75359;BME280;64046;51.978;5.934;2023-04-10T03:34:19;101908.56;;;13.53;56.04
75359;BME280;64046;51.978;5.934;2023-04-10T03:36:48;101908.38;;;13.36;56.34
75359;BME280;64046;51.978;5.934;2023-04-10T03:39:17;101907.84;;;13.26;56.57
75359;BME280;64046;51.978;5.934;2023-04-10T03:41:47;101901.34;;;13.12;57.21
75359;BME280;64046;51.978;5.934;2023-04-10T03:44:17;101897.75;;;13.13;57.48
75359;BME280;64046;51.978;5.934;2023-04-10T03:46:47;101894.41;;;13.10;57.80
75359;BME280;64046;51.978;5.934;2023-04-10T03:49:19;101888.72;;;13.21;57.49
75359;BME280;64046;51.978;5.934;2023-04-10T03:51:51;101888.19;;;13.11;57.67
75359;BME280;64046;51.978;5.934;2023-04-10T03:54:22;101886.69;;;13.05;57.63
75359;BME280;64046;51.978;5.934;2023-04-10T03:56:51;101883.94;;;13.08;57.63
75359;BME280;64046;51.978;5.934;2023-04-10T03:59:21;101879.66;;;13.06;57.67
75359;BME280;64046;51.978;5.934;2023-04-10T04:01:51;101877.00;;;13.06;57.74
75359;BME280;64046;51.978;5.934;2023-04-10T04:04:23;101874.72;;;13.20;57.52
75359;BME280;64046;51.978;5.934;2023-04-10T04:07:13;101878.94;;;13.01;57.85
75359;BME280;64046;51.978;5.934;2023-04-10T04:10:00;101872.13;;;12.95;58.13
75359;BME280;64046;51.978;5.934;2023-04-10T04:12:50;101870.72;;;12.86;58.22
75359;BME280;64046;51.978;5.934;2023-04-10T04:15:38;101863.13;;;12.78;58.65
75359;BME280;64046;51.978;5.934;2023-04-10T04:18:17;101866.72;;;12.76;58.93
75359;BME280;64046;51.978;5.934;2023-04-10T04:20:54;101860.88;;;12.91;58.74
75359;BME280;64046;51.978;5.934;2023-04-10T04:23:58;101862.41;;;12.73;58.97
75359;BME280;64046;51.978;5.934;2023-04-10T04:26:47;101862.53;;;12.70;59.05
75359;BME280;64046;51.978;5.934;2023-04-10T04:29:38;101851.28;;;12.67;59.10
75359;BME280;64046;51.978;5.934;2023-04-10T04:32:16;101852.84;;;12.71;59.07
75359;BME280;64046;51.978;5.934;2023-04-10T04:35:05;101852.66;;;12.77;58.85
75359;BME280;64046;51.978;5.934;2023-04-10T04:37:56;101849.84;;;12.81;58.94
75359;BME280;64046;51.978;5.934;2023-04-10T04:40:43;101854.81;;;12.66;59.12
75359;BME280;64046;51.978;5.934;2023-04-10T04:43:35;101850.34;;;12.68;59.22
75359;BME280;64046;51.978;5.934;2023-04-10T04:46:17;101853.84;;;12.68;59.21
75359;BME280;64046;51.978;5.934;2023-04-10T04:49:04;101843.41;;;12.67;59.03
75359;BME280;64046;51.978;5.934;2023-04-10T04:51:44;101853.03;;;12.66;59.07
75359;BME280;64046;51.978;5.934;2023-04-10T04:54:38;101847.16;;;12.83;58.97
75359;BME280;64046;51.978;5.934;2023-04-10T04:57:16;101850.22;;;12.71;59.05
75359;BME280;64046;51.978;5.934;2023-04-10T05:00:11;101851.69;;;12.79;59.03
75359;BME280;64046;51.978;5.934;2023-04-10T05:02:59;101850.19;;;12.72;58.92
75359;BME280;64046;51.978;5.934;2023-04-10T05:05:35;101843.03;;;12.76;58.79
75359;BME280;64046;51.978;5.934;2023-04-10T05:08:22;101844.81;;;12.75;58.79
75359;BME280;64046;51.978;5.934;2023-04-10T05:11:08;101838.88;;;12.94;58.57
75359;BME280;64046;51.978;5.934;2023-04-10T05:13:56;101830.66;;;12.79;58.55
75359;BME280;64046;51.978;5.934;2023-04-10T05:16:43;101822.69;;;12.81;58.67
75359;BME280;64046;51.978;5.934;2023-04-10T05:19:23;101824.34;;;12.84;58.63
75359;BME280;64046;51.978;5.934;2023-04-10T05:22:09;101830.53;;;12.83;58.60
75359;BME280;64046;51.978;5.934;2023-04-10T05:24:58;101828.34;;;12.94;58.58
75359;BME280;64046;51.978;5.934;2023-04-10T05:27:39;101820.03;;;13.05;58.42
75359;BME280;64046;51.978;5.934;2023-04-10T05:30:26;101820.63;;;12.89;58.47
75359;BME280;64046;51.978;5.934;2023-04-10T05:33:27;101824.91;;;12.92;58.36
75359;BME280;64046;51.978;5.934;2023-04-10T05:36:23;101822.28;;;12.92;58.46
75359;BME280;64046;51.978;5.934;2023-04-10T05:39:11;101829.38;;;12.90;58.48
75359;BME280;64046;51.978;5.934;2023-04-10T05:42:16;101829.97;;;12.96;58.37
75359;BME280;64046;51.978;5.934;2023-04-10T05:44:55;101825.75;;;13.16;58.12
75359;BME280;64046;51.978;5.934;2023-04-10T05:47:37;101823.47;;;13.07;58.04
75359;BME280;64046;51.978;5.934;2023-04-10T05:50:35;101818.22;;;13.07;57.98
75359;BME280;64046;51.978;5.934;2023-04-10T05:53:13;101824.03;;;13.15;58.02
75359;BME280;64046;51.978;5.934;2023-04-10T05:55:56;101825.75;;;13.16;58.01
75359;BME280;64046;51.978;5.934;2023-04-10T05:58:45;101823.94;;;13.18;57.98
75359;BME280;64046;51.978;5.934;2023-04-10T06:01:17;101819.66;;;13.38;57.90
75359;BME280;64046;51.978;5.934;2023-04-10T06:04:06;101818.34;;;13.26;57.85
75359;BME280;64046;51.978;5.934;2023-04-10T06:06:37;101814.53;;;13.35;57.63
75359;BME280;64046;51.978;5.934;2023-04-10T06:09:06;101811.81;;;13.36;57.22
75359;BME280;64046;51.978;5.934;2023-04-10T06:11:35;101812.50;;;13.41;57.09
75359;BME280;64046;51.978;5.934;2023-04-10T06:14:05;101805.09;;;13.51;57.00
75359;BME280;64046;51.978;5.934;2023-04-10T06:16:43;101796.41;;;13.70;56.76
75359;BME280;64046;51.978;5.934;2023-04-10T06:19:12;101795.81;;;13.63;56.65
75359;BME280;64046;51.978;5.934;2023-04-10T06:21:41;101791.22;;;13.68;56.54
75359;BME280;64046;51.978;5.934;2023-04-10T06:24:11;101789.31;;;13.72;56.59
75359;BME280;64046;51.978;5.934;2023-04-10T06:26:41;101783.78;;;13.78;56.26
75359;BME280;64046;51.978;5.934;2023-04-10T06:29:10;101783.56;;;13.82;55.97
75359;BME280;64046;51.978;5.934;2023-04-10T06:31:43;101784.44;;;14.04;55.52
75359;BME280;64046;51.978;5.934;2023-04-10T06:34:12;101782.34;;;13.91;55.79
75359;BME280;64046;51.978;5.934;2023-04-10T06:36:51;101777.78;;;13.95;55.54
75359;BME280;64046;51.978;5.934;2023-04-10T06:39:21;101775.94;;;13.97;55.53
75359;BME280;64046;51.978;5.934;2023-04-10T06:41:50;101773.84;;;14.05;55.33
75359;BME280;64046;51.978;5.934;2023-04-10T06:44:40;101769.22;;;14.10;54.95
75359;BME280;64046;51.978;5.934;2023-04-10T06:47:12;101768.28;;;14.32;54.56
75359;BME280;64046;51.978;5.934;2023-04-10T06:49:42;101772.47;;;14.17;54.68
75359;BME280;64046;51.978;5.934;2023-04-10T06:52:12;101757.28;;;14.22;54.36
75359;BME280;64046;51.978;5.934;2023-04-10T06:54:41;101759.84;;;14.24;54.12
75359;BME280;64046;51.978;5.934;2023-04-10T06:57:10;101761.56;;;14.25;54.05
75359;BME280;64046;51.978;5.934;2023-04-10T06:59:39;101760.28;;;14.33;54.14
75359;BME280;64046;51.978;5.934;2023-04-10T07:02:08;101758.44;;;14.35;53.96
75359;BME280;64046;51.978;5.934;2023-04-10T07:04:41;101755.75;;;14.56;53.60
75359;BME280;64046;51.978;5.934;2023-04-10T07:07:10;101745.63;;;14.47;53.97
75359;BME280;64046;51.978;5.934;2023-04-10T07:09:41;101744.34;;;14.56;53.59
75359;BME280;64046;51.978;5.934;2023-04-10T07:12:10;101738.00;;;14.60;53.46
75359;BME280;64046;51.978;5.934;2023-04-10T07:14:39;101727.13;;;14.67;53.15
75359;BME280;64046;51.978;5.934;2023-04-10T07:17:08;101718.22;;;14.70;52.86
75359;BME280;64046;51.978;5.934;2023-04-10T07:19:39;101716.22;;;14.75;52.77
75359;BME280;64046;51.978;5.934;2023-04-10T07:22:09;101706.00;;;14.86;52.60
75359;BME280;64046;51.978;5.934;2023-04-10T07:24:38;101709.91;;;14.97;52.16
75359;BME280;64046;51.978;5.934;2023-04-10T07:27:07;101698.84;;;15.08;52.18
75359;BME280;64046;51.978;5.934;2023-04-10T07:29:37;101693.16;;;15.15;52.09
75359;BME280;64046;51.978;5.934;2023-04-10T07:32:06;101697.19;;;15.22;51.70
75359;BME280;64046;51.978;5.934;2023-04-10T07:34:35;101691.84;;;15.24;51.56
75359;BME280;64046;51.978;5.934;2023-04-10T07:37:07;101689.16;;;15.43;51.34
75359;BME280;64046;51.978;5.934;2023-04-10T07:39:36;101677.25;;;15.34;51.40
75359;BME280;64046;51.978;5.934;2023-04-10T07:42:05;101673.53;;;15.38;51.02
75359;BME280;64046;51.978;5.934;2023-04-10T07:44:34;101664.59;;;15.41;50.76
75359;BME280;64046;51.978;5.934;2023-04-10T07:47:04;101666.47;;;15.39;50.78
75359;BME280;64046;51.978;5.934;2023-04-10T07:49:34;101657.50;;;15.59;50.76
75359;BME280;64046;51.978;5.934;2023-04-10T07:52:03;101659.28;;;15.58;50.60
75359;BME280;64046;51.978;5.934;2023-04-10T07:54:35;101656.34;;;15.82;50.41
75359;BME280;64046;51.978;5.934;2023-04-10T07:57:04;101650.41;;;15.77;50.24
75359;BME280;64046;51.978;5.934;2023-04-10T07:59:33;101647.56;;;15.82;50.13
75359;BME280;64046;51.978;5.934;2023-04-10T08:02:02;101646.81;;;15.78;50.06
75359;BME280;64046;51.978;5.934;2023-04-10T08:04:32;101657.25;;;15.81;50.06
75359;BME280;64046;51.978;5.934;2023-04-10T08:07:01;101647.75;;;15.77;50.02
75359;BME280;64046;51.978;5.934;2023-04-10T08:09:30;101648.56;;;15.79;49.95
75359;BME280;64046;51.978;5.934;2023-04-10T08:12:02;101641.97;;;16.04;49.66
75359;BME280;64046;51.978;5.934;2023-04-10T08:14:31;101641.59;;;15.94;49.13
75359;BME280;64046;51.978;5.934;2023-04-10T08:17:01;101628.91;;;16.01;48.19
75359;BME280;64046;51.978;5.934;2023-04-10T08:19:30;101623.47;;;16.04;48.20
75359;BME280;64046;51.978;5.934;2023-04-10T08:21:59;101624.66;;;16.14;47.82
75359;BME280;64046;51.978;5.934;2023-04-10T08:24:28;101630.13;;;16.27;47.83
75359;BME280;64046;51.978;5.934;2023-04-10T08:26:57;101619.19;;;16.33;47.65
75359;BME280;64046;51.978;5.934;2023-04-10T08:29:29;101615.94;;;16.60;47.43
75359;BME280;64046;51.978;5.934;2023-04-10T08:31:58;101621.50;;;16.55;47.20
75359;BME280;64046;51.978;5.934;2023-04-10T08:34:28;101620.31;;;16.61;47.11
75359;BME280;64046;51.978;5.934;2023-04-10T08:36:57;101621.56;;;16.70;47.08
75359;BME280;64046;51.978;5.934;2023-04-10T08:39:26;101614.28;;;16.73;46.78
75359;BME280;64046;51.978;5.934;2023-04-10T08:41:55;101625.38;;;16.80;46.74
75359;BME280;64046;51.978;5.934;2023-04-10T08:44:24;101622.34;;;16.88;46.66
75359;BME280;64046;51.978;5.934;2023-04-10T08:46:58;101617.03;;;17.18;46.19
75359;BME280;64046;51.978;5.934;2023-04-10T08:49:31;101623.47;;;17.28;46.25
75359;BME280;64046;51.978;5.934;2023-04-10T08:52:07;101619.03;;;17.29;45.81
75359;BME280;64046;51.978;5.934;2023-04-10T08:54:37;101605.69;;;17.30;45.72
75359;BME280;64046;51.978;5.934;2023-04-10T08:57:07;101596.91;;;17.30;45.48
75359;BME280;64046;51.978;5.934;2023-04-10T08:59:42;101597.47;;;17.21;45.33
75359;BME280;64046;51.978;5.934;2023-04-10T09:02:14;101608.94;;;17.36;45.04
75359;BME280;64046;51.978;5.934;2023-04-10T09:04:46;101590.19;;;17.39;44.63
75359;BME280;64046;51.978;5.934;2023-04-10T09:07:17;101604.00;;;17.29;45.04
75359;BME280;64046;51.978;5.934;2023-04-10T09:09:48;101603.03;;;17.30;44.84
75359;BME280;64046;51.978;5.934;2023-04-10T09:12:17;101597.59;;;17.34;45.09
75359;BME280;64046;51.978;5.934;2023-04-10T09:14:47;101597.50;;;17.35;44.80
75359;BME280;64046;51.978;5.934;2023-04-10T09:17:22;101596.53;;;17.51;44.70
75359;BME280;64046;51.978;5.934;2023-04-10T09:19:52;101589.81;;;17.45;45.29
75359;BME280;64046;51.978;5.934;2023-04-10T09:22:29;101580.09;;;17.60;44.84
75359;BME280;64046;51.978;5.934;2023-04-10T09:25:00;101580.63;;;17.51;44.96
75359;BME280;64046;51.978;5.934;2023-04-10T09:27:30;101586.81;;;17.51;44.70
75359;BME280;64046;51.978;5.934;2023-04-10T09:30:00;101576.41;;;17.48;45.06
75359;BME280;64046;51.978;5.934;2023-04-10T09:32:40;101567.84;;;17.72;44.43
75359;BME280;64046;51.978;5.934;2023-04-10T09:35:11;101570.41;;;17.59;44.66
75359;BME280;64046;51.978;5.934;2023-04-10T09:37:41;101562.00;;;17.67;44.92
75359;BME280;64046;51.978;5.934;2023-04-10T09:40:22;101555.91;;;17.93;44.52
75359;BME280;64046;51.978;5.934;2023-04-10T09:42:53;101554.88;;;17.81;44.76
75359;BME280;64046;51.978;5.934;2023-04-10T09:45:23;101548.06;;;17.77;44.67
75359;BME280;64046;51.978;5.934;2023-04-10T09:48:05;101534.88;;;18.05;44.47
75359;BME280;64046;51.978;5.934;2023-04-10T09:50:35;101533.47;;;17.85;44.61
75359;BME280;64046;51.978;5.934;2023-04-10T09:53:05;101524.09;;;17.79;44.55
75359;BME280;64046;51.978;5.934;2023-04-10T09:55:35;101521.25;;;17.82;44.44
75359;BME280;64046;51.978;5.934;2023-04-10T09:58:05;101519.00;;;17.76;44.12
75359;BME280;64046;51.978;5.934;2023-04-10T10:00:39;101515.31;;;17.78;44.40
75359;BME280;64046;51.978;5.934;2023-04-10T10:03:12;101503.47;;;17.84;44.42
75359;BME280;64046;51.978;5.934;2023-04-10T10:05:43;101496.94;;;17.75;44.84
75359;BME280;64046;51.978;5.934;2023-04-10T10:08:13;101492.28;;;17.79;44.77
75359;BME280;64046;51.978;5.934;2023-04-10T10:10:45;101488.28;;;17.86;44.66
75359;BME280;64046;51.978;5.934;2023-04-10T10:13:23;101476.66;;;17.89;44.68
75359;BME280;64046;51.978;5.934;2023-04-10T10:15:57;101485.44;;;17.89;44.59
75359;BME280;64046;51.978;5.934;2023-04-10T10:18:37;101472.00;;;17.92;44.93
75359;BME280;64046;51.978;5.934;2023-04-10T10:21:08;101474.78;;;17.91;45.28
75359;BME280;64046;51.978;5.934;2023-04-10T10:23:39;101466.34;;;17.98;45.51
75359;BME280;64046;51.978;5.934;2023-04-10T10:26:10;101465.78;;;17.93;45.10
75359;BME280;64046;51.978;5.934;2023-04-10T10:28:40;101466.03;;;18.03;45.39
75359;BME280;64046;51.978;5.934;2023-04-10T10:31:11;101470.63;;;18.14;45.25
75359;BME280;64046;51.978;5.934;2023-04-10T10:33:46;101462.50;;;18.30;44.95
75359;BME280;64046;51.978;5.934;2023-04-10T10:36:16;101460.44;;;18.21;45.18
75359;BME280;64046;51.978;5.934;2023-04-10T10:38:52;101446.81;;;18.40;44.77
75359;BME280;64046;51.978;5.934;2023-04-10T10:41:31;101443.75;;;18.46;44.73
75359;BME280;64046;51.978;5.934;2023-04-10T10:44:10;101452.03;;;18.54;44.41
75359;BME280;64046;51.978;5.934;2023-04-10T10:46:45;101443.97;;;18.56;44.16
75359;BME280;64046;51.978;5.934;2023-04-10T10:49:18;101432.00;;;18.63;44.33
75359;BME280;64046;51.978;5.934;2023-04-10T10:51:48;101431.13;;;18.62;43.92
75359;BME280;64046;51.978;5.934;2023-04-10T10:54:28;101414.56;;;18.84;43.39
75359;BME280;64046;51.978;5.934;2023-04-10T10:56:57;101417.66;;;18.65;43.55
75359;BME280;64046;51.978;5.934;2023-04-10T10:59:53;101406.28;;;19.02;43.32
75359;BME280;64046;51.978;5.934;2023-04-10T11:02:24;101394.72;;;18.77;43.68
75359;BME280;64046;51.978;5.934;2023-04-10T11:04:55;101395.25;;;18.95;43.95
75359;BME280;64046;51.978;5.934;2023-04-10T11:10:58;101389.34;;;19.29;43.08
75359;BME280;64046;51.978;5.934;2023-04-10T11:13:28;101391.50;;;19.11;43.48
75359;BME280;64046;51.978;5.934;2023-04-10T11:15:59;101388.94;;;19.22;43.81
75359;BME280;64046;51.978;5.934;2023-04-10T11:22:03;101364.47;;;19.54;43.26
75359;BME280;64046;51.978;5.934;2023-04-10T11:24:54;101348.56;;;19.65;42.48
75359;BME280;64046;51.978;5.934;2023-04-10T11:27:37;101365.50;;;19.64;42.36
75359;BME280;64046;51.978;5.934;2023-04-10T11:30:31;101355.00;;;19.74;42.89
75359;BME280;64046;51.978;5.934;2023-04-10T11:33:02;101343.84;;;19.58;43.38
75359;BME280;64046;51.978;5.934;2023-04-10T11:35:32;101339.34;;;19.58;42.99
75359;BME280;64046;51.978;5.934;2023-04-10T11:38:14;101326.69;;;19.86;42.80
75359;BME280;64046;51.978;5.934;2023-04-10T11:40:54;101330.31;;;19.85;42.92
75359;BME280;64046;51.978;5.934;2023-04-10T11:43:23;101319.97;;;19.69;43.09
75359;BME280;64046;51.978;5.934;2023-04-10T11:46:00;101323.81;;;19.89;43.32
75359;BME280;64046;51.978;5.934;2023-04-10T11:48:29;101307.47;;;19.82;43.13
75359;BME280;64046;51.978;5.934;2023-04-10T11:51:06;101313.56;;;20.07;42.64
75359;BME280;64046;51.978;5.934;2023-04-10T11:53:38;101304.25;;;20.13;42.49
75359;BME280;64046;51.978;5.934;2023-04-10T11:56:15;101304.41;;;20.22;41.94
75359;BME280;64046;51.978;5.934;2023-04-10T11:58:48;101301.34;;;20.16;42.41
75359;BME280;64046;51.978;5.934;2023-04-10T12:01:20;101298.84;;;20.26;42.51
75359;BME280;64046;51.978;5.934;2023-04-10T12:03:50;101295.06;;;20.17;42.27
75359;BME280;64046;51.978;5.934;2023-04-10T12:06:19;101282.03;;;20.25;41.90
75359;BME280;64046;51.978;5.934;2023-04-10T12:08:52;101286.63;;;20.34;41.47
75359;BME280;64046;51.978;5.934;2023-04-10T12:11:23;101275.88;;;20.25;41.56
75359;BME280;64046;51.978;5.934;2023-04-10T12:13:55;101280.09;;;20.27;41.72
75359;BME280;64046;51.978;5.934;2023-04-10T12:16:25;101280.19;;;20.26;41.84
75359;BME280;64046;51.978;5.934;2023-04-10T12:18:55;101280.81;;;20.29;41.63
75359;BME280;64046;51.978;5.934;2023-04-10T12:21:24;101263.78;;;20.32;42.00
75359;BME280;64046;51.978;5.934;2023-04-10T12:23:56;101253.34;;;20.51;41.92
75359;BME280;64046;51.978;5.934;2023-04-10T12:26:25;101263.16;;;20.39;41.77
75359;BME280;64046;51.978;5.934;2023-04-10T12:28:55;101252.38;;;20.52;41.47
75359;BME280;64046;51.978;5.934;2023-04-10T12:31:28;101252.00;;;20.57;41.19
75359;BME280;64046;51.978;5.934;2023-04-10T12:33:58;101255.63;;;20.56;41.01
75359;BME280;64046;51.978;5.934;2023-04-10T12:36:29;101247.31;;;20.61;40.75
75359;BME280;64046;51.978;5.934;2023-04-10T12:39:03;101232.44;;;20.69;40.89
75359;BME280;64046;51.978;5.934;2023-04-10T12:41:33;101237.50;;;20.61;40.39
75359;BME280;64046;51.978;5.934;2023-04-10T12:46:36;101226.59;;;20.64;40.36
75359;BME280;64046;51.978;5.934;2023-04-10T12:49:09;101231.31;;;20.83;40.39
75359;BME280;64046;51.978;5.934;2023-04-10T12:51:45;101215.41;;;20.93;39.79
75359;BME280;64046;51.978;5.934;2023-04-10T12:54:32;101219.38;;;20.99;39.47
75359;BME280;64046;51.978;5.934;2023-04-10T12:57:02;101218.16;;;20.70;39.94
75359;BME280;64046;51.978;5.934;2023-04-10T12:59:31;101217.28;;;20.58;39.70
75359;BME280;64046;51.978;5.934;2023-04-10T13:02:01;101211.13;;;20.58;40.16
75359;BME280;64046;51.978;5.934;2023-04-10T13:04:30;101185.69;;;20.54;40.12
75359;BME280;64046;51.978;5.934;2023-04-10T13:07:00;101193.09;;;20.50;40.05
75359;BME280;64046;51.978;5.934;2023-04-10T13:09:31;101164.50;;;20.64;40.05
75359;BME280;64046;51.978;5.934;2023-04-10T13:12:00;101179.56;;;20.42;39.81
75359;BME280;64046;51.978;5.934;2023-04-10T13:14:31;101167.22;;;20.41;39.98
75359;BME280;64046;51.978;5.934;2023-04-10T13:17:01;101170.00;;;20.39;40.15
75359;BME280;64046;51.978;5.934;2023-04-10T13:19:30;101165.06;;;20.35;40.11
75359;BME280;64046;51.978;5.934;2023-04-10T13:21:59;101155.13;;;20.26;40.19
75359;BME280;64046;51.978;5.934;2023-04-10T13:24:32;101162.50;;;20.33;40.34
75359;BME280;64046;51.978;5.934;2023-04-10T13:27:02;101152.59;;;20.13;40.77
75359;BME280;64046;51.978;5.934;2023-04-10T13:29:31;101133.63;;;20.06;40.79
75359;BME280;64046;51.978;5.934;2023-04-10T13:32:00;101139.19;;;20.03;40.98
75359;BME280;64046;51.978;5.934;2023-04-10T13:34:30;101132.44;;;19.99;40.97
75359;BME280;64046;51.978;5.934;2023-04-10T13:37:00;101121.66;;;20.00;41.19